EGGP/LPL METAR and TAF weather

Enter ICAO airport designator
Station Type Date Time Source
EGGP METAR 2018/07/19 07:20 UTC NOAA

EGGP 190720Z 26005KT 220V290 9999 SCT041 17/13 Q1020


Station Type Date Time Source
EGGP Decoded METAR 2018/07/19 07:20 UTC NOAA

Liverpool Airport , United Kingdom (EGGP) 53-20N 002-51W
Jul 19, 2018 - 03:20 AM EDT / 2018.07.19 0720 UTC
Wind: from the W (260 degrees) at 6 MPH (5 KT) (direction variable):0
Visibility: greater than 7 mile(s):0
Sky conditions: partly cloudy
Temperature: 62 F (17 C)
Dew Point: 55 F (13 C)
Relative Humidity: 77%
Pressure (altimeter): 30.12 in. Hg (1020 hPa)
ob: EGGP 190720Z 26005KT 220V290 9999 SCT041 17/13 Q1020
cycle: 7

Station Type Date Time Source
EGGP TAF 2018/07/19 06:15 UTC NOAA

TAF TAF EGGP 190454Z 1906/2006 31005KT 9999 FEW045


Example: see airport list